Time;durP1;ratioP1;P1;durP2;ratioP2;P2;SDS_P1;SDS_P2;PMS_P1;PMS_P2;Temp;Humidity;BMP_temperature;BMP_pressure;BME280_temperature;BME280_humidity;BME280_pressure;Samples;Min_cycle;Max_cycle;Signal;HPM_P1;HPM_P2
2022/01/06 00:00:23;;;;;;;0.90;0.63;;;;;;;;;;5032981;27;93728;-62
2022/01/06 00:02:49;;;;;;;0.65;0.45;;;;;;;;;;5015583;28;95170;-62
2022/01/06 00:05:15;;;;;;;1.15;0.93;;;;;;;;;;5011386;28;96768;-62
2022/01/06 00:07:42;;;;;;;1.70;0.80;;;;;;;;;;5017230;28;92478;-62
2022/01/06 00:10:12;;;;;;;2.45;0.80;;;;;;;;;;5015739;27;92473;-62
2022/01/06 00:12:46;;;;;;;1.17;0.70;;;;;;;;;;5020219;28;92659;-62
2022/01/06 00:23:31;;;;;;;1.88;0.75;;;;;;;;;;5021998;28;93501;-62
2022/01/06 00:25:59;;;;;;;0.88;0.70;;;;;;;;;;5029749;27;93156;-62
2022/01/06 00:28:25;;;;;;;1.23;0.65;;;;;;;;;;5018695;27;94914;-61
2022/01/06 00:30:52;;;;;;;1.48;0.65;;;;;;;;;;5011855;28;92435;-61
2022/01/06 00:33:18;;;;;;;1.60;0.80;;;;;;;;;;5000347;28;92463;-62
2022/01/06 00:35:45;;;;;;;0.40;0.40;;;;;;;;;;5015488;28;92445;-62
2022/01/06 00:38:11;;;;;;;1.27;0.50;;;;;;;;;;5024345;27;92492;-61
2022/01/06 00:40:38;;;;;;;1.33;0.73;;;;;;;;;;5011110;28;92504;-62
2022/01/06 00:43:05;;;;;;;1.27;0.52;;;;;;;;;;5011009;28;93445;-62
2022/01/06 00:45:32;;;;;;;2.50;0.98;;;;;;;;;;5028638;28;92147;-62
2022/01/06 00:47:58;;;;;;;2.17;0.88;;;;;;;;;;5022394;27;92523;-61
2022/01/06 00:50:25;;;;;;;1.42;0.65;;;;;;;;;;5011559;28;92956;-61
2022/01/06 00:52:51;;;;;;;1.77;0.82;;;;;;;;;;5010775;28;94899;-62
2022/01/06 00:55:17;;;;;;;1.00;0.60;;;;;;;;;;5002460;28;93419;-62
2022/01/06 00:57:44;;;;;;;0.85;0.52;;;;;;;;;;5012168;28;92423;-62
2022/01/06 01:00:10;;;;;;;0.95;0.68;;;;;;;;;;5014311;28;93180;-61
2022/01/06 01:02:37;;;;;;;0.77;0.47;;;;;;;;;;5018349;28;92523;-61
2022/01/06 01:05:03;;;;;;;2.40;0.68;;;;;;;;;;5015077;27;92479;-62
2022/01/06 01:07:30;;;;;;;1.20;0.80;;;;;;;;;;5028434;28;93048;-62
2022/01/06 01:09:56;;;;;;;0.63;0.50;;;;;;;;;;5023672;27;91704;-62
2022/01/06 01:12:25;;;;;;;0.73;0.60;;;;;;;;;;5014551;28;92680;-61
2022/01/06 01:15:04;;;;;;;1.30;0.70;;;;;;;;;;5019929;28;93579;-61
2022/01/06 01:17:31;;;;;;;1.07;0.60;;;;;;;;;;5014959;27;95236;-62
2022/01/06 01:19:57;;;;;;;1.40;0.80;;;;;;;;;;5021128;28;95174;-62
2022/01/06 01:22:23;;;;;;;0.85;0.70;;;;;;;;;;5019584;28;92433;-62
2022/01/06 01:24:50;;;;;;;0.98;0.65;;;;;;;;;;5022992;27;92581;-62
2022/01/06 01:27:20;;;;;;;1.08;0.60;;;;;;;;;;5027785;27;92787;-61
2022/01/06 01:30:04;;;;;;;1.45;0.70;;;;;;;;;;5016541;28;93320;-62
2022/01/06 01:32:34;;;;;;;0.75;0.68;;;;;;;;;;5019197;28;92374;-62
2022/01/06 01:35:02;;;;;;;0.77;0.50;;;;;;;;;;5020453;27;92422;-61
2022/01/06 01:37:29;;;;;;;1.10;0.43;;;;;;;;;;5014189;28;92326;-61
2022/01/06 01:39:55;;;;;;;1.83;0.82;;;;;;;;;;5014400;28;92751;-62
2022/01/06 01:42:22;;;;;;;1.75;0.80;;;;;;;;;;5012338;28;95840;-61
2022/01/06 01:44:50;;;;;;;1.60;0.70;;;;;;;;;;5014329;28;92407;-62
2022/01/06 01:47:26;;;;;;;2.50;0.90;;;;;;;;;;5013309;28;92909;-61
2022/01/06 01:49:57;;;;;;;0.77;0.50;;;;;;;;;;5013628;28;92427;-61
2022/01/06 01:52:24;;;;;;;1.13;0.73;;;;;;;;;;5017521;28;92377;-62
2022/01/06 01:54:50;;;;;;;1.55;0.57;;;;;;;;;;5017693;28;92351;-62
2022/01/06 01:57:17;;;;;;;0.73;0.50;;;;;;;;;;5020877;27;93002;-61
2022/01/06 01:59:44;;;;;;;0.82;0.50;;;;;;;;;;5011790;28;91754;-62
2022/01/06 02:02:10;;;;;;;0.60;0.60;;;;;;;;;;5019070;28;92803;-61
2022/01/06 02:04:36;;;;;;;2.25;0.90;;;;;;;;;;5012990;28;92294;-61
2022/01/06 02:07:03;;;;;;;1.15;0.88;;;;;;;;;;5026272;28;95600;-61
2022/01/06 02:09:29;;;;;;;0.80;0.65;;;;;;;;;;5021275;27;92434;-62
2022/01/06 02:11:56;;;;;;;1.30;0.60;;;;;;;;;;5017236;28;92652;-61
2022/01/06 02:14:25;;;;;;;0.90;0.50;;;;;;;;;;5016012;27;93237;-61
2022/01/06 02:16:53;;;;;;;1.95;0.70;;;;;;;;;;5025718;28;92789;-62
2022/01/06 02:19:20;;;;;;;0.85;0.40;;;;;;;;;;5021758;27;93044;-61
2022/01/06 02:21:46;;;;;;;1.42;0.50;;;;;;;;;;5016084;28;93235;-62
2022/01/06 02:24:12;;;;;;;1.02;0.68;;;;;;;;;;5015819;27;91870;-61
2022/01/06 02:26:38;;;;;;;11.90;1.10;;;;;;;;;;5025718;28;92239;-62
2022/01/06 02:29:06;;;;;;;0.68;0.43;;;;;;;;;;5016847;27;92462;-62
2022/01/06 02:31:40;;;;;;;1.67;0.80;;;;;;;;;;5011184;28;94931;-62
2022/01/06 02:34:06;;;;;;;0.82;0.68;;;;;;;;;;5016789;28;94147;-62
2022/01/06 02:36:32;;;;;;;0.55;0.47;;;;;;;;;;5021327;28;92276;-62
2022/01/06 02:38:58;;;;;;;1.10;0.60;;;;;;;;;;5018715;27;92397;-62
2022/01/06 02:41:25;;;;;;;1.40;0.45;;;;;;;;;;5012679;28;93872;-62
2022/01/06 02:43:51;;;;;;;0.70;0.65;;;;;;;;;;5011925;28;92461;-62
2022/01/06 02:46:17;;;;;;;1.40;0.70;;;;;;;;;;5018842;28;93360;-62
2022/01/06 02:48:44;;;;;;;0.80;0.50;;;;;;;;;;5019292;27;92526;-62
2022/01/06 02:51:10;;;;;;;0.95;0.50;;;;;;;;;;5013582;28;92291;-62
2022/01/06 02:53:36;;;;;;;1.00;0.63;;;;;;;;;;5012802;28;92856;-62
2022/01/06 02:56:03;;;;;;;1.23;0.60;;;;;;;;;;5012139;28;96878;-62
2022/01/06 02:58:44;;;;;;;1.05;0.70;;;;;;;;;;5007879;28;96485;-62
2022/01/06 03:01:10;;;;;;;0.60;0.50;;;;;;;;;;5015565;28;92460;-62
2022/01/06 03:03:37;;;;;;;0.40;0.40;;;;;;;;;;5027856;27;92511;-62
2022/01/06 03:06:03;;;;;;;1.95;0.90;;;;;;;;;;5020201;28;93272;-62
2022/01/06 03:08:29;;;;;;;0.60;0.50;;;;;;;;;;5011934;28;92595;-62
2022/01/06 03:10:57;;;;;;;2.05;0.55;;;;;;;;;;5008363;28;92599;-62
2022/01/06 03:13:23;;;;;;;1.58;0.60;;;;;;;;;;5014134;28;93861;-62
2022/01/06 03:15:49;;;;;;;1.17;0.68;;;;;;;;;;5029121;28;93509;-62
2022/01/06 03:18:16;;;;;;;2.22;1.00;;;;;;;;;;5016522;28;92428;-62
2022/01/06 03:20:42;;;;;;;1.58;0.70;;;;;;;;;;5015454;27;94694;-62
2022/01/06 03:23:08;;;;;;;1.20;0.57;;;;;;;;;;5011904;28;92475;-62
2022/01/06 03:25:34;;;;;;;0.77;0.57;;;;;;;;;;5012561;28;92879;-62
2022/01/06 03:28:01;;;;;;;1.63;0.75;;;;;;;;;;5021823;28;94466;-62
2022/01/06 03:30:27;;;;;;;0.40;0.40;;;;;;;;;;5022390;28;92502;-62
2022/01/06 03:32:53;;;;;;;1.58;0.57;;;;;;;;;;5029400;27;92461;-62
2022/01/06 03:35:20;;;;;;;0.70;0.52;;;;;;;;;;5013424;27;93251;-62
2022/01/06 03:37:47;;;;;;;1.23;0.60;;;;;;;;;;5023321;28;91671;-62
2022/01/06 03:40:13;;;;;;;1.50;0.60;;;;;;;;;;5015583;27;92830;-62
2022/01/06 03:42:40;;;;;;;1.77;0.50;;;;;;;;;;5011771;28;92432;-62
2022/01/06 03:45:08;;;;;;;1.20;0.50;;;;;;;;;;5010461;28;94713;-62
2022/01/06 03:47:34;;;;;;;1.15;0.68;;;;;;;;;;5021155;28;92446;-62
2022/01/06 03:50:00;;;;;;;1.35;0.60;;;;;;;;;;5012125;28;92787;-62
2022/01/06 03:52:27;;;;;;;1.30;0.50;;;;;;;;;;5012874;28;92806;-62
2022/01/06 03:54:53;;;;;;;1.60;0.50;;;;;;;;;;5011833;28;93085;-62
2022/01/06 03:57:19;;;;;;;1.52;0.50;;;;;;;;;;5017289;28;92596;-62
2022/01/06 03:59:45;;;;;;;0.45;0.43;;;;;;;;;;5009731;28;92953;-62
2022/01/06 04:02:12;;;;;;;0.75;0.40;;;;;;;;;;5010391;28;91684;-62
2022/01/06 04:04:38;;;;;;;1.67;0.95;;;;;;;;;;5011208;28;92568;-62
2022/01/06 04:07:06;;;;;;;1.75;0.50;;;;;;;;;;5011864;28;93404;-62
2022/01/06 04:09:32;;;;;;;1.38;0.57;;;;;;;;;;5011644;28;94800;-62
2022/01/06 04:11:58;;;;;;;0.47;0.47;;;;;;;;;;5013090;28;95447;-62
2022/01/06 04:14:25;;;;;;;0.75;0.43;;;;;;;;;;5017435;28;93458;-62
2022/01/06 04:16:58;;;;;;;0.95;0.52;;;;;;;;;;5011831;28;92464;-62
2022/01/06 04:19:24;;;;;;;2.53;0.55;;;;;;;;;;5011094;28;93128;-62
2022/01/06 04:21:51;;;;;;;0.45;0.45;;;;;;;;;;5011944;28;93631;-62
2022/01/06 04:24:17;;;;;;;1.85;0.55;;;;;;;;;;5011135;28;93023;-62
2022/01/06 04:26:43;;;;;;;0.93;0.55;;;;;;;;;;5013578;28;92703;-62
2022/01/06 04:29:10;;;;;;;0.30;0.30;;;;;;;;;;5010536;28;92356;-62
2022/01/06 04:31:38;;;;;;;0.98;0.60;;;;;;;;;;5013222;27;92395;-62
2022/01/06 04:34:04;;;;;;;0.93;0.70;;;;;;;;;;5012939;28;96452;-62
2022/01/06 04:36:30;;;;;;;1.17;0.50;;;;;;;;;;5025372;28;92553;-62
2022/01/06 04:38:57;;;;;;;0.55;0.50;;;;;;;;;;5019031;27;92695;-62
2022/01/06 04:41:23;;;;;;;0.77;0.52;;;;;;;;;;5014792;28;92479;-62
2022/01/06 04:43:49;;;;;;;1.25;0.50;;;;;;;;;;5017578;28;92333;-62
2022/01/06 04:46:15;;;;;;;1.20;0.63;;;;;;;;;;5014862;28;93484;-62
2022/01/06 04:48:42;;;;;;;0.73;0.50;;;;;;;;;;5017673;28;92529;-62
2022/01/06 04:51:08;;;;;;;0.95;0.63;;;;;;;;;;5020135;28;91907;-62
2022/01/06 04:53:34;;;;;;;0.75;0.40;;;;;;;;;;5025879;27;93245;-62
2022/01/06 04:56:01;;;;;;;0.85;0.57;;;;;;;;;;5015175;28;92559;-62
2022/01/06 04:58:28;;;;;;;0.32;0.32;;;;;;;;;;5013893;28;94983;-62
2022/01/06 05:00:54;;;;;;;0.93;0.45;;;;;;;;;;5016951;28;93305;-62
2022/01/06 05:03:21;;;;;;;1.02;0.70;;;;;;;;;;5025166;27;92488;-62
2022/01/06 05:05:47;;;;;;;1.05;0.50;;;;;;;;;;5019183;27;94051;-62
2022/01/06 05:08:13;;;;;;;0.77;0.45;;;;;;;;;;5017885;28;92414;-62
2022/01/06 05:10:39;;;;;;;1.17;0.55;;;;;;;;;;5008452;28;92317;-62
2022/01/06 05:13:05;;;;;;;0.82;0.35;;;;;;;;;;5020854;27;93120;-62
2022/01/06 05:15:32;;;;;;;0.40;0.40;;;;;;;;;;5014033;28;91770;-62
2022/01/06 05:17:58;;;;;;;0.90;0.57;;;;;;;;;;5017958;28;93218;-62
2022/01/06 05:20:26;;;;;;;1.73;0.50;;;;;;;;;;5014122;28;92364;-62
2022/01/06 05:22:55;;;;;;;1.73;0.50;;;;;;;;;;5008258;28;94752;-62
2022/01/06 05:25:25;;;;;;;0.57;0.47;;;;;;;;;;5016369;28;94017;-62
2022/01/06 05:27:52;;;;;;;0.60;0.50;;;;;;;;;;5023766;27;93406;-62
2022/01/06 05:30:19;;;;;;;1.30;0.60;;;;;;;;;;5016376;28;94442;-62
2022/01/06 05:32:45;;;;;;;1.95;0.60;;;;;;;;;;5016720;28;94523;-62
2022/01/06 05:35:11;;;;;;;0.70;0.50;;;;;;;;;;5010487;28;92678;-62
2022/01/06 05:37:38;;;;;;;0.70;0.40;;;;;;;;;;5017028;28;92932;-62
2022/01/06 05:40:04;;;;;;;0.93;0.60;;;;;;;;;;5015264;27;92044;-62
2022/01/06 05:42:31;;;;;;;0.70;0.40;;;;;;;;;;5027576;27;92492;-62
2022/01/06 05:44:57;;;;;;;0.85;0.50;;;;;;;;;;5014530;27;94207;-62
2022/01/06 05:47:23;;;;;;;0.63;0.52;;;;;;;;;;5011539;28;96079;-61
2022/01/06 05:49:50;;;;;;;0.57;0.40;;;;;;;;;;5017224;28;92501;-62
2022/01/06 05:52:17;;;;;;;0.88;0.50;;;;;;;;;;5017958;28;92537;-62
2022/01/06 05:54:43;;;;;;;0.80;0.52;;;;;;;;;;5001184;28;92441;-62
2022/01/06 05:57:11;;;;;;;0.45;0.45;;;;;;;;;;5013134;28;93173;-62
2022/01/06 05:59:37;;;;;;;0.47;0.40;;;;;;;;;;5013969;27;93644;-62
2022/01/06 06:02:05;;;;;;;1.98;0.40;;;;;;;;;;5023749;28;92332;-62
2022/01/06 06:04:31;;;;;;;0.40;0.20;;;;;;;;;;5015370;27;92341;-62
2022/01/06 06:06:58;;;;;;;1.75;0.50;;;;;;;;;;5024330;28;93415;-62
2022/01/06 06:09:24;;;;;;;0.65;0.40;;;;;;;;;;5016525;27;92515;-62
2022/01/06 06:11:50;;;;;;;0.50;0.25;;;;;;;;;;5014957;28;95020;-62
2022/01/06 06:14:17;;;;;;;0.47;0.47;;;;;;;;;;5013553;28;92375;-62
2022/01/06 06:16:43;;;;;;;0.57;0.47;;;;;;;;;;5014012;28;92877;-62
2022/01/06 06:19:10;;;;;;;0.75;0.50;;;;;;;;;;5001349;28;92548;-62
2022/01/06 06:21:36;;;;;;;0.52;0.50;;;;;;;;;;5013275;28;92496;-62
2022/01/06 06:24:03;;;;;;;1.95;0.70;;;;;;;;;;5019026;28;92331;-62
2022/01/06 06:26:29;;;;;;;0.50;0.38;;;;;;;;;;5030918;27;92501;-62
2022/01/06 06:28:55;;;;;;;0.55;0.30;;;;;;;;;;5014532;28;91847;-62
2022/01/06 06:31:21;;;;;;;0.95;0.60;;;;;;;;;;5030150;27;93655;-62
2022/01/06 06:33:48;;;;;;;0.60;0.43;;;;;;;;;;5027249;27;92516;-61
2022/01/06 06:36:14;;;;;;;0.57;0.32;;;;;;;;;;5015446;27;94772;-62
2022/01/06 06:38:44;;;;;;;1.50;0.60;;;;;;;;;;5011992;28;92574;-62
2022/01/06 06:41:11;;;;;;;2.00;0.73;;;;;;;;;;5013452;28;92384;-62
2022/01/06 06:43:37;;;;;;;1.25;0.60;;;;;;;;;;5024759;27;92580;-62
2022/01/06 06:46:03;;;;;;;1.05;0.50;;;;;;;;;;5013183;28;93282;-62
2022/01/06 06:48:35;;;;;;;0.50;0.40;;;;;;;;;;5012716;28;92493;-62
2022/01/06 06:51:02;;;;;;;0.68;0.40;;;;;;;;;;5018525;28;93059;-61
2022/01/06 06:53:29;;;;;;;1.00;0.63;;;;;;;;;;5028308;27;92492;-62
2022/01/06 06:55:55;;;;;;;0.45;0.40;;;;;;;;;;5013006;28;92290;-62
2022/01/06 06:58:22;;;;;;;0.73;0.50;;;;;;;;;;5014080;28;92427;-62
2022/01/06 07:00:48;;;;;;;0.35;0.32;;;;;;;;;;5014356;28;94987;-62
2022/01/06 07:03:15;;;;;;;1.33;0.63;;;;;;;;;;5013625;28;94295;-62
2022/01/06 07:05:41;;;;;;;1.10;0.50;;;;;;;;;;5006182;28;92590;-62
2022/01/06 07:08:07;;;;;;;0.40;0.40;;;;;;;;;;5011867;28;92615;-62
2022/01/06 07:10:34;;;;;;;0.73;0.50;;;;;;;;;;5007319;28;93098;-62
2022/01/06 07:13:00;;;;;;;1.40;0.50;;;;;;;;;;5018931;28;93428;-62
2022/01/06 07:15:27;;;;;;;1.10;0.55;;;;;;;;;;5035750;27;92449;-62
2022/01/06 07:17:53;;;;;;;0.68;0.50;;;;;;;;;;5033897;28;93647;-62
2022/01/06 07:20:20;;;;;;;0.80;0.40;;;;;;;;;;5033055;27;92430;-62
2022/01/06 07:22:46;;;;;;;1.27;0.35;;;;;;;;;;5014017;28;93197;-61
2022/01/06 07:25:12;;;;;;;1.67;0.70;;;;;;;;;;5010623;28;94931;-62
2022/01/06 07:27:39;;;;;;;0.85;0.60;;;;;;;;;;5012511;28;92475;-62
2022/01/06 07:30:05;;;;;;;0.63;0.50;;;;;;;;;;5012639;28;92420;-62
2022/01/06 07:32:40;;;;;;;0.52;0.50;;;;;;;;;;5013266;28;93520;-62
2022/01/06 07:35:06;;;;;;;0.50;0.45;;;;;;;;;;5010890;28;92474;-62
2022/01/06 07:37:33;;;;;;;0.50;0.50;;;;;;;;;;5015460;28;92477;-62
2022/01/06 07:39:59;;;;;;;1.13;0.55;;;;;;;;;;5012870;28;92788;-62
2022/01/06 07:42:25;;;;;;;1.52;0.55;;;;;;;;;;5016002;28;92719;-62
2022/01/06 07:44:52;;;;;;;2.33;0.70;;;;;;;;;;5005200;28;92472;-62
2022/01/06 07:47:19;;;;;;;0.85;0.50;;;;;;;;;;5010960;28;92373;-62
2022/01/06 07:49:45;;;;;;;2.22;0.65;;;;;;;;;;5010275;28;95151;-62
2022/01/06 07:52:11;;;;;;;0.73;0.47;;;;;;;;;;5012137;28;93101;-62
2022/01/06 07:54:41;;;;;;;1.50;0.50;;;;;;;;;;5011879;28;92465;-62
2022/01/06 07:57:07;;;;;;;1.13;0.57;;;;;;;;;;5013197;28;93330;-62
2022/01/06 07:59:33;;;;;;;1.00;0.65;;;;;;;;;;5015554;28;94435;-62
2022/01/06 08:02:03;;;;;;;0.70;0.50;;;;;;;;;;5009140;28;92328;-62
2022/01/06 08:04:30;;;;;;;2.30;0.75;;;;;;;;;;5015017;28;92516;-62
2022/01/06 08:06:56;;;;;;;0.68;0.50;;;;;;;;;;5011019;28;91657;-62
2022/01/06 08:09:22;;;;;;;0.80;0.50;;;;;;;;;;5025458;27;92775;-62
2022/01/06 08:11:49;;;;;;;0.43;0.38;;;;;;;;;;5015193;27;93583;-62
2022/01/06 08:14:15;;;;;;;1.10;0.47;;;;;;;;;;5010001;28;94826;-62
2022/01/06 08:16:41;;;;;;;0.55;0.40;;;;;;;;;;5025586;28;95589;-62
2022/01/06 08:19:08;;;;;;;1.20;0.70;;;;;;;;;;5031288;27;94515;-62
2022/01/06 08:21:34;;;;;;;0.75;0.57;;;;;;;;;;5025462;27;92998;-62
2022/01/06 08:24:00;;;;;;;0.57;0.45;;;;;;;;;;5011488;28;92429;-62
2022/01/06 08:26:26;;;;;;;0.57;0.52;;;;;;;;;;5030545;28;92363;-62
2022/01/06 08:28:53;;;;;;;0.88;0.52;;;;;;;;;;5018591;27;92423;-62
2022/01/06 08:31:19;;;;;;;1.40;0.50;;;;;;;;;;5012014;28;93178;-62
2022/01/06 08:33:45;;;;;;;0.50;0.50;;;;;;;;;;5026712;28;92445;-62
2022/01/06 08:36:12;;;;;;;0.63;0.30;;;;;;;;;;5011095;28;93199;-62
2022/01/06 08:38:38;;;;;;;0.98;0.60;;;;;;;;;;5010473;28;95924;-62
2022/01/06 08:41:04;;;;;;;0.93;0.70;;;;;;;;;;5014989;28;92366;-62
2022/01/06 08:43:30;;;;;;;0.47;0.47;;;;;;;;;;5027631;28;93248;-62
2022/01/06 08:45:57;;;;;;;1.38;0.68;;;;;;;;;;5031366;27;92982;-62
2022/01/06 08:48:25;;;;;;;0.85;0.73;;;;;;;;;;5029680;28;93031;-62
2022/01/06 08:50:51;;;;;;;1.15;0.57;;;;;;;;;;5027151;27;93677;-62
2022/01/06 08:53:18;;;;;;;0.52;0.50;;;;;;;;;;5011074;28;92439;-62
2022/01/06 08:55:46;;;;;;;1.10;0.60;;;;;;;;;;5012382;28;94891;-62
2022/01/06 08:58:17;;;;;;;2.05;0.70;;;;;;;;;;5020324;27;92472;-62
2022/01/06 09:00:43;;;;;;;0.60;0.50;;;;;;;;;;5011495;28;92430;-62
2022/01/06 09:03:10;;;;;;;0.40;0.40;;;;;;;;;;5011587;28;94954;-61
2022/01/06 09:05:37;;;;;;;1.05;0.50;;;;;;;;;;5010999;28;92368;-62
2022/01/06 09:08:06;;;;;;;1.00;0.60;;;;;;;;;;5011875;27;92428;-62
2022/01/06 09:10:37;;;;;;;0.43;0.40;;;;;;;;;;5003930;28;94525;-62
2022/01/06 09:13:23;;;;;;;1.23;0.70;;;;;;;;;;5021096;28;92345;-62
2022/01/06 09:15:49;;;;;;;2.80;0.43;;;;;;;;;;5029813;27;92991;-62
2022/01/06 09:18:16;;;;;;;1.02;0.50;;;;;;;;;;5032080;27;92457;-62
2022/01/06 09:20:42;;;;;;;0.90;0.40;;;;;;;;;;5015728;27;91880;-62
2022/01/06 09:23:08;;;;;;;0.82;0.50;;;;;;;;;;5014264;28;92711;-62
2022/01/06 09:25:34;;;;;;;0.55;0.52;;;;;;;;;;5016581;28;93554;-62
2022/01/06 09:28:01;;;;;;;0.75;0.40;;;;;;;;;;5027490;28;94763;-62
2022/01/06 09:30:27;;;;;;;0.65;0.55;;;;;;;;;;5012616;28;93481;-62
2022/01/06 09:32:53;;;;;;;0.77;0.68;;;;;;;;;;5014161;28;92392;-62
2022/01/06 09:35:20;;;;;;;1.40;0.55;;;;;;;;;;5024921;28;92426;-62
2022/01/06 09:37:46;;;;;;;0.90;0.47;;;;;;;;;;5032328;27;93884;-62
2022/01/06 09:40:13;;;;;;;1.42;0.60;;;;;;;;;;5016752;27;92445;-62
2022/01/06 09:42:40;;;;;;;1.23;0.60;;;;;;;;;;5014658;28;92877;-62
2022/01/06 09:45:07;;;;;;;0.63;0.50;;;;;;;;;;5031146;28;91797;-62
2022/01/06 09:47:33;;;;;;;0.68;0.40;;;;;;;;;;5021894;27;92579;-62
2022/01/06 09:50:06;;;;;;;2.17;0.40;;;;;;;;;;5013954;28;92405;-62
2022/01/06 09:52:34;;;;;;;0.70;0.45;;;;;;;;;;5012366;28;94785;-62
2022/01/06 09:55:03;;;;;;;1.23;0.40;;;;;;;;;;5015032;28;95625;-62
2022/01/06 09:57:29;;;;;;;1.23;0.47;;;;;;;;;;5015812;28;93220;-62
2022/01/06 09:59:56;;;;;;;0.60;0.40;;;;;;;;;;5013705;28;92400;-62
2022/01/06 10:02:31;;;;;;;0.98;0.50;;;;;;;;;;5017641;27;93166;-62
2022/01/06 10:04:59;;;;;;;0.95;0.65;;;;;;;;;;5033664;27;92385;-62
2022/01/06 10:07:25;;;;;;;0.30;0.30;;;;;;;;;;5022916;27;92474;-62
2022/01/06 10:09:51;;;;;;;1.08;0.82;;;;;;;;;;5016927;28;93167;-62
2022/01/06 10:12:17;;;;;;;1.75;0.73;;;;;;;;;;5013030;28;92480;-62
2022/01/06 10:14:46;;;;;;;0.73;0.68;;;;;;;;;;5013599;28;92746;-62
2022/01/06 10:17:14;;;;;;;1.45;0.63;;;;;;;;;;5011300;28;95632;-62
2022/01/06 10:19:41;;;;;;;0.90;0.60;;;;;;;;;;5005648;28;92623;-62
2022/01/06 10:22:12;;;;;;;0.45;0.45;;;;;;;;;;5012532;28;94199;-62
2022/01/06 10:24:38;;;;;;;0.57;0.50;;;;;;;;;;5021519;28;92330;-62
2022/01/06 10:27:07;;;;;;;0.80;0.55;;;;;;;;;;5016893;27;92338;-62
2022/01/06 10:29:34;;;;;;;0.80;0.52;;;;;;;;;;5015021;28;93314;-62
2022/01/06 10:32:06;;;;;;;0.55;0.55;;;;;;;;;;5016676;28;92935;-62
2022/01/06 10:34:33;;;;;;;0.40;0.40;;;;;;;;;;5014123;28;94235;-62
2022/01/06 10:37:03;;;;;;;0.88;0.50;;;;;;;;;;5014221;28;92527;-62
2022/01/06 10:39:42;;;;;;;0.57;0.30;;;;;;;;;;5012136;28;93411;-62
2022/01/06 10:42:08;;;;;;;0.65;0.40;;;;;;;;;;5009529;28;95755;-62
2022/01/06 10:44:48;;;;;;;0.47;0.43;;;;;;;;;;5028714;27;92463;-62
2022/01/06 10:47:15;;;;;;;0.70;0.50;;;;;;;;;;5012102;28;92818;-62
2022/01/06 10:49:41;;;;;;;1.23;0.63;;;;;;;;;;5013259;28;92908;-62
2022/01/06 10:52:07;;;;;;;1.85;0.60;;;;;;;;;;5016154;28;94338;-62
2022/01/06 10:54:35;;;;;;;1.33;0.55;;;;;;;;;;5023482;28;92472;-62
2022/01/06 10:57:03;;;;;;;0.75;0.40;;;;;;;;;;5015097;27;92932;-62
2022/01/06 10:59:33;;;;;;;0.95;0.65;;;;;;;;;;4993250;28;91768;-62
2022/01/06 11:02:01;;;;;;;0.40;0.40;;;;;;;;;;4995222;28;92963;-62
2022/01/06 11:04:28;;;;;;;0.50;0.50;;;;;;;;;;5021233;28;95433;-62
2022/01/06 11:06:54;;;;;;;0.40;0.40;;;;;;;;;;5023131;27;95189;-62
2022/01/06 11:09:21;;;;;;;1.02;0.60;;;;;;;;;;5013191;28;95124;-62
2022/01/06 11:14:26;;;;;;;4.53;0.85;;;;;;;;;;5035241;27;92433;-62
2022/01/06 11:16:52;;;;;;;2.13;1.20;;;;;;;;;;5007541;28;93792;-61
2022/01/06 11:19:21;;;;;;;5.38;1.10;;;;;;;;;;5012837;28;92410;-61
2022/01/06 11:21:48;;;;;;;9.10;1.40;;;;;;;;;;5013160;28;93303;-61
2022/01/06 11:24:16;;;;;;;5.95;0.90;;;;;;;;;;5012607;28;92575;-61
2022/01/06 11:26:44;;;;;;;6.43;1.08;;;;;;;;;;5013303;28;92798;-61
2022/01/06 11:29:11;;;;;;;4.13;0.88;;;;;;;;;;5013466;28;92532;-61
2022/01/06 11:31:41;;;;;;;0.80;0.60;;;;;;;;;;5030783;27;96901;-61
2022/01/06 11:34:13;;;;;;;4.88;1.38;;;;;;;;;;5024783;27;92672;-62
2022/01/06 11:36:39;;;;;;;10.43;1.23;;;;;;;;;;5014726;28;93241;-61
2022/01/06 11:39:07;;;;;;;4.93;1.08;;;;;;;;;;5011990;28;92840;-61
2022/01/06 11:41:42;;;;;;;8.20;1.42;;;;;;;;;;4992157;28;92396;-61
2022/01/06 11:44:22;;;;;;;7.70;1.42;;;;;;;;;;4998145;28;92560;-61
2022/01/06 11:46:49;;;;;;;6.80;1.50;;;;;;;;;;5016262;28;92580;-61
2022/01/06 11:49:28;;;;;;;6.75;1.23;;;;;;;;;;5013776;27;92115;-61
2022/01/06 11:52:03;;;;;;;6.82;1.52;;;;;;;;;;5009344;28;94492;-61
2022/01/06 11:54:30;;;;;;;10.18;1.50;;;;;;;;;;5012149;28;93444;-61
2022/01/06 11:56:57;;;;;;;7.18;1.50;;;;;;;;;;5010420;28;94763;-61
2022/01/06 11:59:33;;;;;;;2.90;1.05;;;;;;;;;;5008156;28;93355;-61
2022/01/06 12:02:00;;;;;;;3.38;1.45;;;;;;;;;;5031930;27;92381;-61
2022/01/06 12:04:27;;;;;;;6.95;1.30;;;;;;;;;;5024239;27;94019;-61
2022/01/06 12:07:23;;;;;;;4.47;0.90;;;;;;;;;;5030290;28;92611;-61
2022/01/06 12:09:56;;;;;;;2.80;0.90;;;;;;;;;;4992182;28;94040;-62
2022/01/06 12:12:30;;;;;;;6.10;1.30;;;;;;;;;;4990681;28;92419;-61
2022/01/06 12:15:10;;;;;;;8.45;1.30;;;;;;;;;;5021085;28;92759;-61
2022/01/06 12:17:36;;;;;;;13.60;1.05;;;;;;;;;;5007053;28;92551;-61
2022/01/06 12:20:06;;;;;;;4.10;1.27;;;;;;;;;;5011002;28;93154;-61
2022/01/06 12:22:32;;;;;;;4.00;1.15;;;;;;;;;;5012724;28;95353;-61
2022/01/06 12:25:03;;;;;;;3.13;1.05;;;;;;;;;;5011097;28;93372;-61
2022/01/06 12:27:30;;;;;;;2.75;1.25;;;;;;;;;;5010666;28;92801;-61
2022/01/06 12:29:57;;;;;;;4.97;1.35;;;;;;;;;;5011731;28;93269;-61
2022/01/06 12:32:23;;;;;;;3.22;1.10;;;;;;;;;;5010758;28;93303;-61
2022/01/06 12:34:53;;;;;;;4.10;1.35;;;;;;;;;;5011824;28;92428;-61
2022/01/06 12:37:26;;;;;;;3.78;1.25;;;;;;;;;;5010821;28;93266;-61
2022/01/06 12:39:52;;;;;;;3.88;1.02;;;;;;;;;;5011900;28;91686;-61
2022/01/06 12:42:18;;;;;;;1.90;0.80;;;;;;;;;;5019410;28;92451;-61
2022/01/06 12:44:45;;;;;;;6.47;1.27;;;;;;;;;;5010200;28;92497;-61
2022/01/06 12:47:11;;;;;;;1.55;0.90;;;;;;;;;;4989666;28;94874;-61
2022/01/06 12:49:37;;;;;;;1.70;0.90;;;;;;;;;;5007699;28;95575;-61
2022/01/06 12:52:06;;;;;;;2.42;1.02;;;;;;;;;;5007175;28;93685;-61
2022/01/06 12:54:33;;;;;;;2.72;1.02;;;;;;;;;;5014138;28;92416;-62
2022/01/06 12:57:06;;;;;;;5.50;0.98;;;;;;;;;;5013595;28;92383;-62
2022/01/06 12:59:34;;;;;;;10.52;1.23;;;;;;;;;;5000169;28;93085;-62
2022/01/06 13:02:02;;;;;;;6.60;1.33;;;;;;;;;;5026285;28;92536;-62
2022/01/06 13:04:33;;;;;;;4.97;0.77;;;;;;;;;;5035930;27;92145;-62
2022/01/06 13:07:01;;;;;;;6.75;1.10;;;;;;;;;;5032828;27;92385;-62
2022/01/06 13:09:31;;;;;;;3.25;0.93;;;;;;;;;;5030739;28;92976;-62
2022/01/06 13:11:58;;;;;;;;;;;;;;;;;;5014140;27;94834;-62
2022/01/06 13:14:30;;;;;;;1.98;0.93;;;;;;;;;;5015949;28;118924;-62
2022/01/06 13:17:23;;;;;;;3.53;1.15;;;;;;;;;;5012769;28;93313;-62
2022/01/06 13:19:52;;;;;;;7.35;1.17;;;;;;;;;;4998175;28;93496;-63
2022/01/06 13:25:21;;;;;;;6.45;1.10;;;;;;;;;;5010521;28;94169;-63
2022/01/06 13:28:07;;;;;;;4.90;1.20;;;;;;;;;;5016602;28;94213;-63
2022/01/06 13:30:39;;;;;;;4.53;1.15;;;;;;;;;;5014792;28;93197;-63
2022/01/06 13:33:09;;;;;;;4.22;1.50;;;;;;;;;;5013628;28;93453;-63
2022/01/06 13:36:05;;;;;;;3.25;0.90;;;;;;;;;;5019922;28;92523;-63
2022/01/06 13:38:33;;;;;;;2.15;1.10;;;;;;;;;;5004848;28;94905;-63
2022/01/06 13:41:01;;;;;;;5.68;1.23;;;;;;;;;;5006211;27;93506;-63
2022/01/06 13:43:29;;;;;;;4.63;1.27;;;;;;;;;;5019605;28;92697;-63
2022/01/06 13:46:09;;;;;;;5.53;0.90;;;;;;;;;;5012241;28;92626;-63
2022/01/06 13:48:40;;;;;;;;;;;;;;;;;;5012638;28;93494;-63
2022/01/06 13:51:12;;;;;;;2.47;1.08;;;;;;;;;;5017850;28;118407;-63
2022/01/06 13:53:51;;;;;;;2.80;0.90;;;;;;;;;;5012547;28;92405;-63
2022/01/06 13:56:32;;;;;;;5.15;1.10;;;;;;;;;;5027100;28;92280;-63
2022/01/06 13:58:59;;;;;;;7.88;0.98;;;;;;;;;;5016852;28;92512;-63
2022/01/06 14:01:27;;;;;;;5.80;1.20;;;;;;;;;;5013572;28;93354;-63
2022/01/06 14:03:54;;;;;;;2.83;1.02;;;;;;;;;;5011003;28;95063;-63
2022/01/06 14:06:21;;;;;;;3.67;1.15;;;;;;;;;;5014995;28;94186;-63
2022/01/06 14:08:47;;;;;;;4.00;1.02;;;;;;;;;;5013855;28;95033;-63
2022/01/06 14:11:14;;;;;;;1.48;0.75;;;;;;;;;;5011481;28;92708;-63
2022/01/06 14:13:42;;;;;;;2.22;0.98;;;;;;;;;;5025425;27;92551;-63
2022/01/06 14:16:09;;;;;;;4.75;1.10;;;;;;;;;;5013093;28;92521;-63
2022/01/06 14:18:35;;;;;;;4.20;1.17;;;;;;;;;;5022116;28;93073;-63
2022/01/06 14:21:02;;;;;;;5.25;1.48;;;;;;;;;;5028057;27;91696;-63
2022/01/06 14:23:30;;;;;;;3.33;1.35;;;;;;;;;;5012651;28;92508;-63
2022/01/06 14:25:57;;;;;;;2.53;0.85;;;;;;;;;;5012905;28;92505;-63
2022/01/06 14:28:25;;;;;;;1.80;1.00;;;;;;;;;;5014776;28;95966;-63
2022/01/06 14:30:51;;;;;;;4.93;0.95;;;;;;;;;;5033369;27;92341;-63
2022/01/06 14:33:17;;;;;;;1.85;0.63;;;;;;;;;;5033452;27;92459;-63
2022/01/06 14:35:44;;;;;;;1.92;0.80;;;;;;;;;;5036546;27;93457;-63
2022/01/06 14:38:31;;;;;;;5.55;1.02;;;;;;;;;;5024498;27;95715;-63
2022/01/06 14:40:57;;;;;;;3.55;0.85;;;;;;;;;;5008921;28;95066;-63
2022/01/06 14:43:24;;;;;;;3.58;0.65;;;;;;;;;;5013403;28;93059;-63
2022/01/06 14:45:50;;;;;;;2.75;1.02;;;;;;;;;;5012003;28;94228;-63
2022/01/06 14:48:17;;;;;;;2.47;1.13;;;;;;;;;;5011776;28;94183;-63
2022/01/06 14:50:43;;;;;;;6.03;1.17;;;;;;;;;;5012231;28;92431;-63
2022/01/06 14:53:09;;;;;;;4.65;1.20;;;;;;;;;;5010916;28;94927;-63
2022/01/06 14:55:35;;;;;;;2.95;0.88;;;;;;;;;;5015939;28;94520;-63
2022/01/06 14:58:02;;;;;;;1.48;0.75;;;;;;;;;;5008413;28;93141;-63
2022/01/06 15:00:28;;;;;;;2.55;1.02;;;;;;;;;;5023805;27;93242;-63